Bedford, Kentucky
Current Conditions -  °F | °C
As of 7:53 PM on Wednesday 22 Oct 2014 (Local Time) from KLOU Reporting Station
Clear Clear  
Wind Chill: 54°   Ceiling: Unl
Heat Index: 54°   Visibility: 10mi
Dew Point: 41°   Wind: 7mph
Humidity: 62%   Direction: 70°ENE
Pressure: 30.26"   Gusts: NA
Location:  38.59°N, 85.32°W
Report Text: KLOU 222353Z 07006KT 10SM CLR 12/05 A3026 RMK AO2 SLP246 T01220050 10161 20122 53004
Loading
Personal Weather Stations






























Interactive Weather Map
Tropical Storm Tracking
New forecast layout! Learn more

10-Day Weather Forecast

Advertisements
Track Severe Weather on mobile